Terminal Aerodrome Forecast
Issued by NWS Raleigh/Durham, NC

Home | Current Version | Previous Version | Text Only | Print | Product List | Glossary On
Versions: 1 2 3 4 5 6 7 8 9 10 11 12 13 14 15 16 17 18 19 20 21 22 23 24 25 26 27 28 29 30 31 32
000
FTUS42 KRAH 201349 AAA
TAFRDU
TAF AMD
KRDU 201349Z 2014/2112 06006KT P6SM OVC090
      TEMPO 2014/2015 2SM -SN
     FM201500 05007KT P6SM -RA SCT025 OVC060
     FM201800 06006KT P6SM SCT015 OVC060
      TEMPO 2018/2021 BKN018
     FM210300 04003KT P6SM FEW050=

USA.gov is the U.S. government's official web portal to all federal, state and local government web resources and services.